Time;durP1;ratioP1;P1;durP2;ratioP2;P2;SDS_P1;SDS_P2;PMS_P1;PMS_P2;Temp;Humidity;BMP_temperature;BMP_pressure;BME280_temperature;BME280_humidity;BME280_pressure;Samples;Min_cycle;Max_cycle;Signal;HPM_P1;HPM_P2
2022/09/21 11:32:21;;;;;;;8.08;7.67;;;;;;;;;;1946191;71;39680;-82
2022/09/21 11:35:20;;;;;;;7.92;7.55;;;;;;;;;;1819155;77;609781;-87
2022/09/21 11:38:10;;;;;;;7.33;7.03;;;;;;;;;;1823629;76;611685;-82
2022/09/21 11:43:08;;;;;;;7.33;6.93;;;;;;;;;;1777393;79;613521;-85
2022/09/21 11:49:15;;;;;;;7.50;7.20;;;;;;;;;;1846496;75;613496;-83
2022/09/21 11:55:08;;;;;;;8.33;7.83;;;;;;;;;;1783596;79;121218;-80
2022/09/21 11:57:38;;;;;;;7.87;7.57;;;;;;;;;;1771363;78;613866;-80
2022/09/21 12:00:14;;;;;;;8.73;8.23;;;;;;;;;;1758514;79;613622;-80
2022/09/21 12:03:01;;;;;;;8.75;8.35;;;;;;;;;;1769129;79;613800;-79
2022/09/21 12:05:30;;;;;;;8.90;8.40;;;;;;;;;;1698351;82;612507;-80
2022/09/21 12:08:04;;;;;;;8.87;8.47;;;;;;;;;;1734091;81;611644;-79
2022/09/21 12:10:38;;;;;;;8.63;8.23;;;;;;;;;;1711569;82;613753;-80
2022/09/21 12:13:08;;;;;;;9.60;9.00;;;;;;;;;;1735240;80;613626;-81
2022/09/21 12:15:39;;;;;;;8.17;7.77;;;;;;;;;;1712946;81;613578;-81
2022/09/21 12:18:09;;;;;;;9.28;8.73;;;;;;;;;;1715024;82;613807;-81
2022/09/21 12:20:40;;;;;;;8.67;8.27;;;;;;;;;;1727804;81;612601;-79
2022/09/21 12:23:10;;;;;;;9.13;8.63;;;;;;;;;;1707416;81;613834;-79
2022/09/21 12:25:40;;;;;;;8.33;7.93;;;;;;;;;;1714532;82;613850;-78
2022/09/21 12:28:11;;;;;;;9.10;8.70;;;;;;;;;;1717644;81;613845;-78
2022/09/21 12:30:41;;;;;;;9.10;8.70;;;;;;;;;;1720699;81;613828;-77
2022/09/21 12:33:13;;;;;;;8.80;8.30;;;;;;;;;;1755571;79;613656;-79
2022/09/21 12:35:43;;;;;;;9.10;8.60;;;;;;;;;;1766349;78;612595;-78
2022/09/21 12:38:13;;;;;;;9.07;8.67;;;;;;;;;;1725121;79;613706;-79
2022/09/21 12:40:46;;;;;;;8.77;8.37;;;;;;;;;;1726154;81;613701;-78
2022/09/21 12:43:19;;;;;;;8.80;8.37;;;;;;;;;;1730733;80;613634;-78
2022/09/21 12:45:50;;;;;;;8.90;8.60;;;;;;;;;;1755236;81;611617;-77
2022/09/21 12:48:20;;;;;;;9.07;8.73;;;;;;;;;;1761274;80;613573;-78
2022/09/21 12:50:49;;;;;;;9.08;8.60;;;;;;;;;;1770270;80;611687;-78
2022/09/21 12:53:19;;;;;;;9.98;9.40;;;;;;;;;;1761691;80;612562;-78
2022/09/21 12:55:51;;;;;;;8.48;8.08;;;;;;;;;;1774771;80;611858;-78
2022/09/21 12:58:37;;;;;;;8.28;7.87;;;;;;;;;;1766937;80;613513;-81
2022/09/21 13:01:08;;;;;;;10.72;9.73;;;;;;;;;;1766409;80;613546;-78
2022/09/21 13:03:39;;;;;;;9.40;8.80;;;;;;;;;;1774626;80;615674;-78
2022/09/21 13:06:25;;;;;;;8.98;8.55;;;;;;;;;;1766543;80;613832;-78
2022/09/21 13:08:54;;;;;;;9.23;8.83;;;;;;;;;;1772842;80;611707;-78
2022/09/21 13:11:23;;;;;;;9.50;9.00;;;;;;;;;;1766551;80;613667;-86
2022/09/21 13:13:53;;;;;;;8.93;8.33;;;;;;;;;;1774085;80;611703;-86
2022/09/21 13:16:26;;;;;;;8.98;8.50;;;;;;;;;;1766590;80;613612;-86
2022/09/21 13:18:56;;;;;;;9.18;8.68;;;;;;;;;;1774247;80;611658;-88
2022/09/21 13:21:25;;;;;;;9.18;8.78;;;;;;;;;;1766502;80;613546;-85
2022/09/21 13:23:56;;;;;;;9.40;8.90;;;;;;;;;;1774162;80;611750;-83
2022/09/21 13:26:33;;;;;;;9.20;8.80;;;;;;;;;;1766460;80;613747;-86
2022/09/21 13:29:23;;;;;;;9.28;8.78;;;;;;;;;;1774198;80;611774;-88
2022/09/21 13:31:59;;;;;;;8.65;8.25;;;;;;;;;;1734331;81;611684;-83
2022/09/21 13:34:37;;;;;;;8.28;7.97;;;;;;;;;;1774128;80;613612;-84
2022/09/21 13:37:37;;;;;;;9.03;8.63;;;;;;;;;;1766431;80;613701;-83
2022/09/21 13:40:43;;;;;;;9.20;8.80;;;;;;;;;;1738334;80;612523;-85
2022/09/21 13:43:22;;;;;;;9.00;8.60;;;;;;;;;;1766507;80;613531;-86
2022/09/21 13:45:55;;;;;;;9.85;9.28;;;;;;;;;;1774288;80;611704;-87
2022/09/21 13:48:28;;;;;;;9.15;8.70;;;;;;;;;;1766474;80;613661;-83
2022/09/21 13:50:58;;;;;;;8.90;8.50;;;;;;;;;;1774169;80;611652;-86
2022/09/21 13:53:28;;;;;;;8.90;8.50;;;;;;;;;;1774095;80;613677;-84
2022/09/21 13:55:58;;;;;;;8.95;8.45;;;;;;;;;;1764452;79;611769;-82
2022/09/21 13:58:27;;;;;;;9.10;8.60;;;;;;;;;;1759380;80;612434;-83
2022/09/21 14:00:57;;;;;;;8.93;8.53;;;;;;;;;;1759310;80;610759;-84
2022/09/21 14:03:27;;;;;;;9.75;9.20;;;;;;;;;;1751869;80;613581;-83
2022/09/21 14:05:57;;;;;;;9.38;8.98;;;;;;;;;;1759460;80;611598;-83
2022/09/21 14:08:27;;;;;;;8.63;8.15;;;;;;;;;;1751765;80;613572;-83
2022/09/21 14:10:57;;;;;;;8.78;8.35;;;;;;;;;;1759433;80;611636;-84
2022/09/21 14:13:28;;;;;;;8.75;8.35;;;;;;;;;;1751822;80;613552;-84
2022/09/21 14:16:11;;;;;;;8.63;8.23;;;;;;;;;;1759339;80;611683;-83
2022/09/21 14:18:40;;;;;;;9.03;8.63;;;;;;;;;;1758170;80;613553;-83
2022/09/21 14:21:09;;;;;;;9.30;8.80;;;;;;;;;;1751934;80;613606;-82
2022/09/21 14:23:38;;;;;;;9.23;8.73;;;;;;;;;;1759338;80;613722;-83
2022/09/21 14:26:20;;;;;;;8.70;8.20;;;;;;;;;;1751787;80;613564;-83
2022/09/21 14:28:50;;;;;;;8.63;8.15;;;;;;;;;;1759470;80;611677;-83
2022/09/21 14:31:20;;;;;;;8.58;8.18;;;;;;;;;;1751860;80;612478;-83
2022/09/21 14:33:52;;;;;;;8.28;7.87;;;;;;;;;;1759396;80;610520;-82
2022/09/21 14:36:22;;;;;;;8.55;8.13;;;;;;;;;;1751722;80;613479;-80
2022/09/21 14:38:53;;;;;;;8.95;8.45;;;;;;;;;;1759239;80;611822;-81
2022/09/21 14:41:23;;;;;;;8.70;8.20;;;;;;;;;;1747211;80;613547;-81
2022/09/21 14:43:52;;;;;;;8.40;8.00;;;;;;;;;;1759433;80;611814;-81
2022/09/21 14:46:43;;;;;;;8.63;8.25;;;;;;;;;;1751768;80;613513;-80
2022/09/21 14:49:19;;;;;;;8.73;8.33;;;;;;;;;;1751777;80;612868;-82
2022/09/21 14:51:49;;;;;;;8.00;7.70;;;;;;;;;;1759170;80;610661;-84
2022/09/21 14:54:30;;;;;;;8.63;8.23;;;;;;;;;;1751509;81;613564;-83
2022/09/21 14:57:02;;;;;;;8.90;8.50;;;;;;;;;;1758844;79;611913;-83
2022/09/21 14:59:38;;;;;;;9.55;8.98;;;;;;;;;;1759143;80;613808;-83
2022/09/21 15:02:14;;;;;;;8.15;7.72;;;;;;;;;;1751751;80;613676;-82
2022/09/21 15:04:45;;;;;;;8.65;8.10;;;;;;;;;;1759403;80;613579;-83
2022/09/21 15:12:58;;;;;;;8.05;7.65;;;;;;;;;;1759343;80;611895;-83
2022/09/21 15:15:35;;;;;;;8.43;8.03;;;;;;;;;;1751817;80;613594;-81
2022/09/21 15:18:10;;;;;;;8.43;8.10;;;;;;;;;;1751854;80;613606;-81
2022/09/21 15:20:39;;;;;;;8.43;8.03;;;;;;;;;;1759181;80;613640;-82
2022/09/21 15:23:12;;;;;;;8.80;8.40;;;;;;;;;;1751995;80;613558;-82
2022/09/21 15:25:40;;;;;;;9.18;8.70;;;;;;;;;;1759114;80;613595;-83
2022/09/21 15:28:10;;;;;;;8.60;8.20;;;;;;;;;;1751705;80;613706;-84
2022/09/21 15:30:44;;;;;;;9.73;9.03;;;;;;;;;;1759262;80;613603;-83
2022/09/21 15:33:12;;;;;;;12.53;11.73;;;;;;;;;;1751662;80;613816;-86
2022/09/21 15:35:42;;;;;;;11.25;10.58;;;;;;;;;;1759200;80;617646;-84
2022/09/21 15:38:26;;;;;;;9.90;9.33;;;;;;;;;;1751227;80;617838;-82
2022/09/21 15:40:54;;;;;;;8.70;8.30;;;;;;;;;;1759391;80;611587;-84
2022/09/21 15:43:22;;;;;;;9.03;8.45;;;;;;;;;;1751675;80;612548;-86
2022/09/21 15:45:53;;;;;;;9.23;8.73;;;;;;;;;;1759397;80;611497;-86
2022/09/21 15:48:23;;;;;;;8.68;8.28;;;;;;;;;;1751744;80;613583;-87
2022/09/21 15:50:56;;;;;;;8.68;8.28;;;;;;;;;;1759593;80;611668;-87
2022/09/21 15:53:26;;;;;;;9.55;8.95;;;;;;;;;;1751953;80;613628;-90
2022/09/21 15:55:54;;;;;;;8.95;8.43;;;;;;;;;;1759732;80;611785;-87
2022/09/21 15:58:26;;;;;;;8.73;8.33;;;;;;;;;;1752295;79;612466;-88
2022/09/21 16:00:55;;;;;;;8.98;8.50;;;;;;;;;;1760552;80;610555;-89
2022/09/21 16:03:25;;;;;;;9.00;8.55;;;;;;;;;;1751920;80;613516;-89
2022/09/21 16:05:55;;;;;;;8.98;8.38;;;;;;;;;;1759657;80;611654;-89
2022/09/21 16:08:31;;;;;;;8.95;8.45;;;;;;;;;;1751986;80;613721;-88
2022/09/21 16:11:22;;;;;;;8.78;8.28;;;;;;;;;;1759669;81;611646;-88
2022/09/21 16:17:05;;;;;;;9.30;8.60;;;;;;;;;;1761246;81;612494;-89
2022/09/21 16:19:41;;;;;;;8.58;8.18;;;;;;;;;;1759998;80;613628;-88
2022/09/21 16:22:12;;;;;;;8.43;8.03;;;;;;;;;;1751988;80;613580;-89
2022/09/21 16:24:45;;;;;;;8.85;8.25;;;;;;;;;;1759636;80;613901;-87
2022/09/21 16:27:16;;;;;;;8.40;7.90;;;;;;;;;;1752278;80;612430;-78
2022/09/21 16:29:47;;;;;;;8.53;8.03;;;;;;;;;;1759617;80;613536;-82
2022/09/21 16:32:26;;;;;;;8.77;8.23;;;;;;;;;;1752289;80;613613;-81
2022/09/21 16:34:56;;;;;;;8.20;7.43;;;;;;;;;;1759188;80;611406;-82
2022/09/21 16:37:26;;;;;;;8.63;8.00;;;;;;;;;;1748703;80;613595;-80
2022/09/21 16:39:57;;;;;;;8.53;7.83;;;;;;;;;;1759395;81;611626;-79
2022/09/21 16:42:31;;;;;;;8.20;7.70;;;;;;;;;;1751940;80;613548;-81
2022/09/21 16:44:57;;;;;;;8.35;7.85;;;;;;;;;;1759013;80;611821;-80
2022/09/21 16:47:26;;;;;;;8.77;8.37;;;;;;;;;;1751914;80;612449;-83
2022/09/21 16:49:55;;;;;;;8.60;8.10;;;;;;;;;;1759490;80;610555;-81
2022/09/21 16:52:24;;;;;;;8.50;8.10;;;;;;;;;;1752072;80;613532;-82
2022/09/21 16:54:53;;;;;;;9.03;8.60;;;;;;;;;;1759397;80;611614;-77
2022/09/21 16:57:22;;;;;;;8.57;8.03;;;;;;;;;;1751666;80;613578;-77
2022/09/21 16:59:50;;;;;;;9.53;8.93;;;;;;;;;;1759557;79;611874;-77
2022/09/21 17:02:18;;;;;;;8.63;8.03;;;;;;;;;;1752001;80;613558;-77
2022/09/21 17:04:47;;;;;;;9.73;9.03;;;;;;;;;;1759327;81;612549;-77
2022/09/21 17:07:17;;;;;;;9.57;8.13;;;;;;;;;;1751783;80;612388;-76
2022/09/21 17:09:47;;;;;;;8.47;7.77;;;;;;;;;;1759409;80;613564;-77
2022/09/21 17:12:16;;;;;;;9.30;8.63;;;;;;;;;;1751848;81;613683;-77
2022/09/21 17:14:45;;;;;;;9.03;8.40;;;;;;;;;;1759477;80;613590;-77
2022/09/21 17:17:14;;;;;;;8.63;7.93;;;;;;;;;;1751852;80;613545;-77
2022/09/21 17:19:45;;;;;;;7.40;7.03;;;;;;;;;;1759476;80;613547;-77
2022/09/21 17:22:16;;;;;;;8.00;7.63;;;;;;;;;;1751767;80;612426;-78
2022/09/21 17:24:44;;;;;;;8.60;8.20;;;;;;;;;;1759600;80;612573;-77
2022/09/21 17:27:13;;;;;;;8.40;7.90;;;;;;;;;;1751845;80;613629;-77
2022/09/21 17:29:46;;;;;;;8.83;8.23;;;;;;;;;;1759425;80;612402;-77
2022/09/21 17:32:13;;;;;;;8.90;8.40;;;;;;;;;;1751569;80;613542;-77
2022/09/21 17:34:41;;;;;;;8.77;8.10;;;;;;;;;;1759412;80;613591;-77
2022/09/21 17:37:10;;;;;;;8.33;7.77;;;;;;;;;;1751624;80;612684;-77
2022/09/21 17:39:39;;;;;;;9.57;8.83;;;;;;;;;;1759165;81;612462;-77
2022/09/21 17:42:12;;;;;;;8.70;8.20;;;;;;;;;;1751845;80;612430;-77
2022/09/21 17:44:44;;;;;;;8.70;8.20;;;;;;;;;;1754574;80;613615;-77
2022/09/21 17:47:15;;;;;;;8.23;7.83;;;;;;;;;;1751629;80;613628;-81
2022/09/21 17:49:44;;;;;;;8.90;8.33;;;;;;;;;;1759342;80;613549;-71
2022/09/21 17:55:06;;;;;;;8.87;8.17;;;;;;;;;;1759397;80;611561;-78
2022/09/21 17:57:39;;;;;;;9.23;8.73;;;;;;;;;;1759083;80;612381;-78
2022/09/21 18:00:12;;;;;;;8.83;8.33;;;;;;;;;;1751666;79;612410;-78
2022/09/21 18:02:40;;;;;;;8.43;7.90;;;;;;;;;;1759425;80;613639;-79
2022/09/21 18:05:12;;;;;;;8.40;8.00;;;;;;;;;;1751802;80;613534;-79
2022/09/21 18:07:41;;;;;;;8.50;8.00;;;;;;;;;;1759382;80;613613;-79
2022/09/21 18:10:12;;;;;;;9.43;8.73;;;;;;;;;;1751709;80;613481;-78
2022/09/21 18:13:00;;;;;;;8.70;8.30;;;;;;;;;;1759330;81;612480;-79
2022/09/21 18:15:31;;;;;;;8.10;7.70;;;;;;;;;;1759517;80;613974;-77
2022/09/21 18:18:03;;;;;;;8.47;8.07;;;;;;;;;;1759246;80;610620;-78
2022/09/21 18:20:37;;;;;;;8.90;8.40;;;;;;;;;;1759104;80;613531;-82
2022/09/21 18:23:08;;;;;;;8.80;8.30;;;;;;;;;;1751931;80;613615;-79
2022/09/21 18:25:46;;;;;;;8.90;8.40;;;;;;;;;;1758534;80;613497;-78
2022/09/21 18:28:11;;;;;;;8.50;8.10;;;;;;;;;;1722083;80;612432;-78
2022/09/21 18:30:41;;;;;;;8.47;8.00;;;;;;;;;;1731093;80;613597;-78
2022/09/21 18:33:11;;;;;;;8.60;8.10;;;;;;;;;;1738875;81;612325;-77
2022/09/21 18:36:01;;;;;;;8.93;8.33;;;;;;;;;;1731379;81;612491;-79
2022/09/21 18:38:33;;;;;;;9.40;8.80;;;;;;;;;;1759249;80;613577;-79
2022/09/21 18:41:07;;;;;;;9.20;8.50;;;;;;;;;;1759355;80;611798;-81
2022/09/21 18:43:40;;;;;;;9.10;8.60;;;;;;;;;;1759089;80;612654;-79
2022/09/21 18:46:11;;;;;;;9.90;9.30;;;;;;;;;;1723007;82;612357;-79
2022/09/21 18:48:44;;;;;;;10.30;9.70;;;;;;;;;;1759195;80;612611;-82
2022/09/21 18:51:14;;;;;;;9.40;8.80;;;;;;;;;;1751661;80;614325;-81
2022/09/21 18:53:44;;;;;;;10.23;9.63;;;;;;;;;;1759248;80;612559;-80
2022/09/21 18:56:13;;;;;;;9.70;9.03;;;;;;;;;;1751495;80;615726;-80
2022/09/21 18:58:42;;;;;;;9.07;8.57;;;;;;;;;;1759237;80;613433;-80
2022/09/21 19:01:11;;;;;;;9.43;8.83;;;;;;;;;;1751559;80;612339;-80
2022/09/21 19:03:42;;;;;;;9.60;8.90;;;;;;;;;;1759175;80;612404;-80
2022/09/21 19:06:17;;;;;;;9.73;9.13;;;;;;;;;;1751591;80;612411;-80
2022/09/21 19:08:48;;;;;;;10.07;9.47;;;;;;;;;;1759211;80;612726;-81
2022/09/21 19:11:18;;;;;;;11.00;10.10;;;;;;;;;;1751426;80;615627;-83
2022/09/21 19:13:48;;;;;;;10.00;9.37;;;;;;;;;;1758924;80;617559;-82
2022/09/21 19:16:20;;;;;;;10.20;9.57;;;;;;;;;;1751293;80;615775;-83
2022/09/21 19:18:51;;;;;;;10.17;9.47;;;;;;;;;;1759028;80;612602;-83
2022/09/21 19:21:22;;;;;;;9.90;9.30;;;;;;;;;;1751666;80;614463;-82
2022/09/21 19:23:55;;;;;;;10.70;10.03;;;;;;;;;;1759237;80;610643;-82
2022/09/21 19:26:27;;;;;;;9.93;9.30;;;;;;;;;;1722503;82;616574;-84
2022/09/21 19:28:58;;;;;;;9.87;9.37;;;;;;;;;;1759420;80;611456;-83
2022/09/21 19:31:28;;;;;;;10.47;9.87;;;;;;;;;;1759290;80;613497;-82
2022/09/21 19:33:57;;;;;;;11.53;10.73;;;;;;;;;;1759270;80;612646;-81
2022/09/21 19:36:25;;;;;;;11.57;10.80;;;;;;;;;;1751662;80;617823;-80
2022/09/21 19:38:54;;;;;;;11.67;10.97;;;;;;;;;;1759217;80;614792;-81
2022/09/21 19:41:30;;;;;;;11.90;11.20;;;;;;;;;;1751569;80;616698;-81
2022/09/21 19:44:00;;;;;;;12.53;11.73;;;;;;;;;;1729936;82;614784;-79
2022/09/21 19:46:32;;;;;;;11.57;10.87;;;;;;;;;;1759165;80;617734;-81
2022/09/21 19:49:02;;;;;;;11.27;10.47;;;;;;;;;;1759196;80;615786;-81
2022/09/21 19:51:33;;;;;;;11.30;10.50;;;;;;;;;;1759243;80;617824;-82
2022/09/21 19:59:43;;;;;;;12.63;11.90;;;;;;;;;;1759870;80;616527;-80
2022/09/21 20:02:12;;;;;;;13.00;12.00;;;;;;;;;;1751470;79;617657;-79
2022/09/21 20:04:44;;;;;;;12.23;11.43;;;;;;;;;;1759341;80;617710;-81
2022/09/21 20:07:17;;;;;;;12.77;11.97;;;;;;;;;;1751780;80;617705;-81
2022/09/21 20:09:47;;;;;;;12.83;11.90;;;;;;;;;;1730237;81;617842;-82
2022/09/21 20:12:17;;;;;;;12.67;11.87;;;;;;;;;;1751418;80;617880;-81
2022/09/21 20:14:47;;;;;;;12.03;11.23;;;;;;;;;;1759619;80;616700;-81
2022/09/21 20:17:18;;;;;;;12.70;11.70;;;;;;;;;;1723311;82;616584;-81
2022/09/21 20:19:49;;;;;;;11.37;10.60;;;;;;;;;;1759504;80;617707;-81
2022/09/21 20:22:18;;;;;;;11.57;10.97;;;;;;;;;;1722521;82;616586;-81
2022/09/21 20:24:51;;;;;;;13.23;12.23;;;;;;;;;;1759185;80;617653;-81
2022/09/21 20:27:23;;;;;;;12.87;11.87;;;;;;;;;;1722518;81;616801;-82
2022/09/21 20:29:51;;;;;;;18.17;16.77;;;;;;;;;;1759209;80;615710;-82
2022/09/21 20:32:22;;;;;;;14.90;13.77;;;;;;;;;;1751554;80;616622;-83
2022/09/21 20:34:50;;;;;;;14.47;13.57;;;;;;;;;;1759241;80;614712;-83
2022/09/21 20:37:20;;;;;;;13.77;12.97;;;;;;;;;;1751571;80;617839;-84
2022/09/21 20:39:49;;;;;;;13.87;12.97;;;;;;;;;;1759497;80;615849;-83
2022/09/21 20:42:20;;;;;;;13.93;13.00;;;;;;;;;;1751620;80;617881;-84
2022/09/21 20:44:49;;;;;;;12.93;12.23;;;;;;;;;;1759366;80;615798;-84
2022/09/21 20:47:18;;;;;;;13.40;12.50;;;;;;;;;;1751778;80;616650;-83
2022/09/21 20:49:47;;;;;;;13.70;12.80;;;;;;;;;;1759385;80;617874;-83
2022/09/21 20:52:16;;;;;;;13.40;12.70;;;;;;;;;;1751780;80;616704;-83
2022/09/21 20:54:44;;;;;;;13.60;12.70;;;;;;;;;;1759311;80;617750;-83
2022/09/21 20:57:13;;;;;;;13.90;13.00;;;;;;;;;;1751576;80;617688;-83
2022/09/21 20:59:41;;;;;;;13.27;12.37;;;;;;;;;;1759252;80;617970;-83
2022/09/21 21:02:10;;;;;;;12.80;12.00;;;;;;;;;;1751484;79;617768;-83
2022/09/21 21:04:38;;;;;;;13.23;12.33;;;;;;;;;;1759216;80;616706;-83
2022/09/21 21:07:06;;;;;;;12.50;11.70;;;;;;;;;;1751539;80;616602;-84
2022/09/21 21:09:35;;;;;;;15.73;12.80;;;;;;;;;;1759234;80;616612;-83
2022/09/21 21:12:03;;;;;;;21.13;12.87;;;;;;;;;;1751586;80;616655;-83
2022/09/21 21:14:31;;;;;;;13.17;11.90;;;;;;;;;;1759355;80;616572;-84
2022/09/21 21:17:01;;;;;;;13.83;12.43;;;;;;;;;;1758905;80;615697;-83
2022/09/21 21:19:30;;;;;;;12.90;11.90;;;;;;;;;;1759297;80;616594;-83
2022/09/21 21:21:58;;;;;;;13.13;12.03;;;;;;;;;;1759292;80;615967;-84
2022/09/21 21:24:42;;;;;;;13.57;12.67;;;;;;;;;;1759354;80;617770;-84
2022/09/21 21:27:13;;;;;;;13.73;12.50;;;;;;;;;;1751658;80;616646;-83
2022/09/21 21:29:42;;;;;;;12.50;11.70;;;;;;;;;;1759238;80;616592;-85
2022/09/21 21:32:10;;;;;;;12.83;12.03;;;;;;;;;;1751604;80;617762;-85
2022/09/21 21:34:39;;;;;;;12.03;11.27;;;;;;;;;;1759342;80;616639;-84
2022/09/21 21:37:08;;;;;;;12.67;11.87;;;;;;;;;;1751042;80;617787;-87
2022/09/21 21:39:38;;;;;;;11.60;10.83;;;;;;;;;;1759372;80;616632;-86
2022/09/21 21:42:06;;;;;;;12.40;11.60;;;;;;;;;;1751579;80;616674;-83
2022/09/21 21:44:35;;;;;;;12.43;11.57;;;;;;;;;;1759265;80;616770;-83
2022/09/21 21:47:03;;;;;;;12.73;11.93;;;;;;;;;;1751601;80;617691;-82
2022/09/21 21:49:32;;;;;;;13.70;12.80;;;;;;;;;;1759295;80;617691;-82
2022/09/21 21:52:04;;;;;;;13.50;12.60;;;;;;;;;;1759248;81;614880;-83
2022/09/21 21:54:33;;;;;;;13.60;12.80;;;;;;;;;;1759255;80;617747;-84
2022/09/21 21:57:01;;;;;;;13.53;12.63;;;;;;;;;;1759193;80;615692;-84
2022/09/21 21:59:30;;;;;;;14.87;13.80;;;;;;;;;;1759178;80;616610;-84
2022/09/21 22:01:58;;;;;;;14.40;13.40;;;;;;;;;;1759188;81;615633;-83
2022/09/21 22:04:26;;;;;;;14.43;13.43;;;;;;;;;;1751648;79;616623;-81
2022/09/21 22:06:55;;;;;;;14.13;13.03;;;;;;;;;;1759246;80;615902;-81
2022/09/21 22:09:23;;;;;;;14.53;13.53;;;;;;;;;;1751609;80;617803;-81
2022/09/21 22:11:51;;;;;;;14.83;13.80;;;;;;;;;;1759247;80;615824;-84
2022/09/21 22:14:21;;;;;;;15.37;14.17;;;;;;;;;;1751622;80;617956;-82
2022/09/21 22:16:50;;;;;;;14.47;13.57;;;;;;;;;;1759254;80;615613;-81
2022/09/21 22:19:18;;;;;;;14.53;13.60;;;;;;;;;;1751695;80;617698;-84
2022/09/21 22:21:46;;;;;;;14.60;13.70;;;;;;;;;;1759382;81;616810;-82
2022/09/21 22:24:15;;;;;;;14.23;13.33;;;;;;;;;;1751668;80;616799;-80
2022/09/21 22:26:44;;;;;;;14.20;13.20;;;;;;;;;;1759329;80;617901;-79
2022/09/21 22:29:13;;;;;;;14.60;13.60;;;;;;;;;;1751674;80;617708;-80
2022/09/21 22:31:43;;;;;;;13.90;13.00;;;;;;;;;;1759327;80;617659;-80
2022/09/21 22:34:12;;;;;;;15.37;14.27;;;;;;;;;;1751775;80;617739;-80
2022/09/21 22:36:42;;;;;;;14.63;13.57;;;;;;;;;;1759388;80;616709;-80
2022/09/21 22:39:10;;;;;;;15.20;14.10;;;;;;;;;;1751802;80;617692;-80
2022/09/21 22:41:40;;;;;;;14.70;13.70;;;;;;;;;;1759348;80;617723;-80
2022/09/21 22:44:08;;;;;;;15.47;14.27;;;;;;;;;;1751622;80;617821;-80
2022/09/21 22:46:37;;;;;;;16.17;14.87;;;;;;;;;;1759316;80;617668;-80
2022/09/21 22:49:06;;;;;;;15.53;14.33;;;;;;;;;;1751801;80;617784;-80
2022/09/21 22:51:35;;;;;;;15.20;14.10;;;;;;;;;;1759343;80;617814;-80
2022/09/21 22:54:04;;;;;;;15.67;14.50;;;;;;;;;;1751750;80;616688;-80
2022/09/21 22:56:32;;;;;;;16.07;14.93;;;;;;;;;;1759193;80;616581;-80
2022/09/21 22:59:02;;;;;;;16.60;15.40;;;;;;;;;;1759306;80;615987;-80
2022/09/21 23:01:32;;;;;;;15.40;14.30;;;;;;;;;;1759323;80;617774;-80
2022/09/21 23:04:01;;;;;;;16.80;15.60;;;;;;;;;;1759320;79;615973;-80
2022/09/21 23:06:31;;;;;;;17.17;15.87;;;;;;;;;;1759287;81;617746;-80
2022/09/21 23:09:00;;;;;;;18.67;17.17;;;;;;;;;;1759491;80;615975;-80
2022/09/21 23:11:30;;;;;;;17.93;16.47;;;;;;;;;;1759193;80;618103;-79
2022/09/21 23:14:00;;;;;;;17.60;16.30;;;;;;;;;;1711301;82;615873;-80
2022/09/21 23:16:29;;;;;;;16.80;15.47;;;;;;;;;;1759329;80;616599;-80
2022/09/21 23:18:58;;;;;;;16.47;15.07;;;;;;;;;;1759378;80;616043;-80
2022/09/21 23:21:27;;;;;;;16.13;14.87;;;;;;;;;;1751837;80;617814;-80
2022/09/21 23:23:58;;;;;;;15.33;14.27;;;;;;;;;;1759424;81;615963;-80
2022/09/21 23:26:26;;;;;;;16.47;15.07;;;;;;;;;;1751835;80;617810;-80
2022/09/21 23:28:56;;;;;;;17.40;16.20;;;;;;;;;;1759366;80;615905;-80
2022/09/21 23:31:25;;;;;;;19.87;18.07;;;;;;;;;;1751695;80;617166;-80
2022/09/21 23:33:55;;;;;;;19.07;17.43;;;;;;;;;;1759156;80;616110;-81
2022/09/21 23:36:25;;;;;;;19.00;17.60;;;;;;;;;;1751905;80;617686;-81
2022/09/21 23:38:54;;;;;;;19.37;17.87;;;;;;;;;;1759473;81;615954;-80
2022/09/21 23:41:23;;;;;;;18.70;17.20;;;;;;;;;;1751918;80;617848;-79
2022/09/21 23:43:52;;;;;;;18.13;16.80;;;;;;;;;;1760291;80;616101;-80
2022/09/21 23:46:21;;;;;;;18.07;16.67;;;;;;;;;;1751918;80;617744;-80
2022/09/21 23:48:49;;;;;;;17.77;16.37;;;;;;;;;;1738696;81;615746;-80
2022/09/21 23:51:17;;;;;;;17.63;16.17;;;;;;;;;;1752078;80;617759;-79
2022/09/21 23:53:46;;;;;;;16.50;15.20;;;;;;;;;;1759838;80;617774;-80
2022/09/21 23:56:16;;;;;;;17.53;15.97;;;;;;;;;;1752014;80;617789;-80
2022/09/21 23:58:44;;;;;;;15.87;14.77;;;;;;;;;;1759606;80;617698;-80
